createdAt,value
2023-02-16T00:06:14.576Z,3
2023-02-16T00:09:14.888Z,3
2023-02-16T00:21:15.494Z,1
2023-02-16T00:27:14.621Z,1
2023-02-16T00:29:14.773Z,1
2023-02-16T00:30:15.019Z,1
2023-02-16T00:32:15.903Z,3
2023-02-16T00:33:14.385Z,3
2023-02-16T00:34:14.081Z,3
2023-02-16T00:45:14.039Z,3
2023-02-16T00:51:35.980Z,3
2023-02-16T00:52:13.957Z,3
2023-02-16T00:54:14.459Z,3
2023-02-16T00:56:14.647Z,3
2023-02-16T00:58:14.216Z,3
2023-02-16T01:06:14.574Z,1
2023-02-16T01:07:14.413Z,1
2023-02-16T01:08:14.105Z,1
2023-02-16T01:26:13.809Z,1
2023-02-16T01:30:15.229Z,1
2023-02-16T01:37:14.386Z,3
2023-02-16T01:42:14.006Z,3
2023-02-16T01:43:14.937Z,3
2023-02-16T01:46:14.664Z,3
2023-02-16T01:48:14.869Z,1
2023-02-16T01:52:14.331Z,1
2023-02-16T01:53:14.192Z,1
2023-02-16T02:01:16.173Z,1
2023-02-16T02:03:14.542Z,1
2023-02-16T02:20:14.581Z,3
2023-02-16T02:30:15.435Z,3
2023-02-16T02:33:14.764Z,0
2023-02-16T02:53:14.781Z,3
2023-02-16T02:57:14.593Z,3
2023-02-16T03:12:13.984Z,1
2023-02-16T03:15:13.951Z,1
2023-02-16T03:18:13.795Z,3
2023-02-16T03:28:14.390Z,3
2023-02-16T03:29:14.594Z,3
2023-02-16T03:32:15.010Z,1
2023-02-16T03:33:14.207Z,1
2023-02-16T03:37:14.110Z,1
2023-02-16T03:39:14.635Z,1
2023-02-16T03:54:14.943Z,1
2023-02-16T04:03:14.177Z,3
2023-02-16T04:05:14.499Z,3
2023-02-16T04:24:13.901Z,0
2023-02-16T04:26:14.531Z,0
2023-02-16T04:27:14.116Z,0
2023-02-16T04:39:13.928Z,1
2023-02-16T04:41:15.228Z,1
2023-02-16T04:49:13.918Z,0
2023-02-16T05:02:14.241Z,3
2023-02-16T05:13:14.126Z,3
2023-02-16T05:14:13.870Z,3
2023-02-16T05:22:14.737Z,3
2023-02-16T05:25:14.739Z,3
2023-02-16T05:27:15.065Z,3
2023-02-16T05:28:14.976Z,3
2023-02-16T05:29:14.300Z,3
2023-02-16T05:30:14.396Z,3
2023-02-16T05:37:14.609Z,3
2023-02-16T05:38:14.174Z,3
2023-02-16T05:42:14.458Z,3
2023-02-16T05:44:14.649Z,3
2023-02-16T05:59:14.408Z,4
2023-02-16T06:00:14.488Z,4
2023-02-16T06:12:14.117Z,0
2023-02-16T06:13:14.917Z,0
2023-02-16T06:15:14.636Z,0
2023-02-16T06:36:14.652Z,5
2023-02-16T06:38:14.288Z,5
2023-02-16T06:44:14.648Z,5
2023-02-16T06:47:14.929Z,9
2023-02-16T06:48:14.781Z,9
2023-02-16T06:55:14.874Z,9
2023-02-16T06:59:14.327Z,9
2023-02-16T07:41:19.804Z,3
2023-02-16T07:50:14.308Z,1
2023-02-16T07:59:14.574Z,1
2023-02-16T08:00:13.870Z,1
2023-02-16T08:01:18.147Z,1
2023-02-16T08:33:14.868Z,5
2023-02-16T08:45:14.691Z,5
2023-02-16T08:46:15.816Z,5
2023-02-16T08:55:14.703Z,0
2023-02-16T09:00:14.168Z,0
2023-02-16T09:09:14.661Z,1
2023-02-16T09:27:14.168Z,1
2023-02-16T09:39:14.014Z,1
2023-02-16T09:44:14.495Z,1
2023-02-16T09:50:14.871Z,3
2023-02-16T09:56:15.689Z,3
2023-02-16T10:01:15.356Z,3
2023-02-16T10:22:14.694Z,6
2023-02-16T10:25:13.942Z,6
2023-02-16T10:31:16.056Z,6
2023-02-16T10:32:15.136Z,6
2023-02-16T10:43:14.365Z,6
2023-02-16T10:45:14.748Z,6
2023-02-16T11:08:14.408Z,9
2023-02-16T11:28:14.129Z,5
2023-02-16T11:30:14.898Z,5
2023-02-16T11:47:14.838Z,1
2023-02-16T12:05:15.171Z,3
2023-02-16T12:20:14.610Z,3
2023-02-16T12:25:14.278Z,3
2023-02-16T12:33:14.078Z,5
2023-02-16T12:34:14.719Z,5
2023-02-16T12:41:14.263Z,5
2023-02-16T13:06:15.648Z,1
2023-02-16T13:16:32.120Z,1
2023-02-16T13:40:14.404Z,1
2023-02-16T13:53:13.816Z,3
2023-02-16T13:58:14.961Z,3
2023-02-16T14:05:14.157Z,1
2023-02-16T14:06:15.552Z,1
2023-02-16T14:11:14.428Z,1
2023-02-16T14:19:14.627Z,1
2023-02-16T14:30:14.712Z,1
2023-02-16T14:47:14.440Z,3
2023-02-16T14:50:14.341Z,3
2023-02-16T15:16:16.124Z,3
2023-02-16T15:20:14.565Z,6
2023-02-16T15:40:44.275Z,5
2023-02-16T15:41:14.119Z,5
2023-02-16T15:42:14.958Z,5
2023-02-16T15:43:14.732Z,5
2023-02-16T15:44:14.130Z,5
2023-02-16T15:45:14.034Z,5
2023-02-16T15:46:15.897Z,5
2023-02-16T15:47:14.214Z,6
2023-02-16T15:48:14.814Z,6
2023-02-16T15:49:14.339Z,6
2023-02-16T15:50:14.215Z,6
2023-02-16T15:51:14.794Z,6
2023-02-16T15:52:14.577Z,6
2023-02-16T15:53:15.037Z,6
2023-02-16T15:54:14.676Z,6
2023-02-16T15:55:14.409Z,6
2023-02-16T15:57:14.418Z,6
2023-02-16T15:58:14.268Z,6
2023-02-16T15:59:15.003Z,6
2023-02-16T16:00:14.766Z,6
2023-02-16T16:01:26.927Z,6
2023-02-16T16:02:15.435Z,5
2023-02-16T16:03:14.592Z,5
2023-02-16T16:04:14.484Z,5
2023-02-16T16:05:15.106Z,5
2023-02-16T16:07:14.885Z,5
2023-02-16T16:08:14.485Z,5
2023-02-16T16:09:14.128Z,5
2023-02-16T16:10:14.671Z,5
2023-02-16T16:11:15.369Z,5
2023-02-16T16:12:14.298Z,5
2023-02-16T16:13:14.669Z,5
2023-02-16T16:14:14.576Z,5
2023-02-16T16:15:14.345Z,5
2023-02-16T16:17:14.629Z,6
2023-02-16T16:18:14.393Z,6
2023-02-16T16:19:14.180Z,6
2023-02-16T16:20:14.743Z,6
2023-02-16T16:21:15.818Z,6
2023-02-16T16:22:14.299Z,6
2023-02-16T16:23:14.097Z,6
2023-02-16T16:24:14.726Z,6
2023-02-16T16:25:14.479Z,6
2023-02-16T16:26:14.784Z,6
2023-02-16T16:27:15.017Z,6
2023-02-16T16:28:14.470Z,6
2023-02-16T16:29:14.332Z,6
2023-02-16T16:30:15.205Z,6
2023-02-16T16:32:16.372Z,5
2023-02-16T16:33:14.861Z,5
2023-02-16T16:34:14.249Z,5
2023-02-16T16:35:13.985Z,5
2023-02-16T16:36:15.500Z,5
2023-02-16T16:37:14.418Z,5
2023-02-16T16:38:14.111Z,5
2023-02-16T16:39:14.869Z,5
2023-02-16T16:40:15.038Z,5
2023-02-16T16:41:15.053Z,5
2023-02-16T16:42:14.858Z,5
2023-02-16T16:43:14.839Z,5
2023-02-16T16:44:14.364Z,5
2023-02-16T16:46:14.941Z,5
2023-02-16T16:47:14.641Z,6
2023-02-16T16:48:14.030Z,6
2023-02-16T16:49:14.288Z,6
2023-02-16T16:50:15.119Z,6
2023-02-16T16:51:15.164Z,6
2023-02-16T16:52:14.168Z,6
2023-02-16T16:53:15.107Z,6
2023-02-16T16:54:14.903Z,6
2023-02-16T16:55:14.538Z,6
2023-02-16T16:56:15.694Z,6
2023-02-16T16:57:14.869Z,6
2023-02-16T16:58:14.642Z,6
2023-02-16T16:59:14.326Z,6
2023-02-16T17:00:14.745Z,6
2023-02-16T17:01:15.612Z,6
2023-02-16T17:02:14.888Z,4
2023-02-16T17:03:14.296Z,4
2023-02-16T17:04:15.260Z,4
2023-02-16T17:05:14.509Z,4
2023-02-16T17:06:15.317Z,4
2023-02-16T17:07:14.946Z,4
2023-02-16T17:08:14.763Z,4
2023-02-16T17:09:15.901Z,4
2023-02-16T17:10:14.796Z,4
2023-02-16T17:11:14.693Z,4
2023-02-16T17:12:14.485Z,4
2023-02-16T17:13:14.140Z,4
2023-02-16T17:14:14.979Z,4
2023-02-16T17:15:14.619Z,4
2023-02-16T17:16:15.880Z,4
2023-02-16T17:17:14.493Z,9
2023-02-16T17:18:13.991Z,9
2023-02-16T17:19:14.922Z,9
2023-02-16T17:20:14.532Z,9
2023-02-16T17:21:14.384Z,9
2023-02-16T17:22:14.081Z,9
2023-02-16T17:23:14.945Z,9
2023-02-16T17:24:14.601Z,9
2023-02-16T17:25:14.422Z,9
2023-02-16T17:27:14.465Z,9
2023-02-16T17:28:14.264Z,9
2023-02-16T17:29:15.038Z,9
2023-02-16T17:30:15.146Z,9
2023-02-16T17:31:14.673Z,9
2023-02-16T17:32:15.658Z,6
2023-02-16T17:33:14.427Z,6
2023-02-16T17:34:14.282Z,6
2023-02-16T17:35:14.964Z,6
2023-02-16T17:36:15.416Z,6
2023-02-16T17:37:14.077Z,6
2023-02-16T17:38:15.003Z,6
2023-02-16T17:39:14.667Z,6
2023-02-16T17:40:14.119Z,6
2023-02-16T17:41:14.885Z,6
2023-02-16T17:42:14.745Z,6
2023-02-16T17:43:14.347Z,6
2023-02-16T17:44:14.063Z,6
2023-02-16T17:45:14.800Z,6
2023-02-16T17:46:15.724Z,6
2023-02-16T17:47:14.636Z,5
2023-02-16T17:48:14.815Z,5
2023-02-16T17:49:14.224Z,5
2023-02-16T17:50:14.875Z,5
2023-02-16T17:51:14.835Z,5
2023-02-16T17:52:14.321Z,5
2023-02-16T17:53:14.318Z,5
2023-02-16T17:55:14.817Z,5
2023-02-16T17:56:15.037Z,5
2023-02-16T17:57:14.197Z,5
2023-02-16T17:58:14.867Z,5
2023-02-16T17:59:14.310Z,5
2023-02-16T18:00:14.269Z,5
2023-02-16T18:01:14.964Z,5
2023-02-16T18:02:14.606Z,8
2023-02-16T18:03:14.521Z,8
2023-02-16T18:04:14.304Z,8
2023-02-16T18:05:14.703Z,8
2023-02-16T18:06:15.120Z,8
2023-02-16T18:07:14.398Z,8
2023-02-16T18:08:14.261Z,8
2023-02-16T18:09:15.018Z,8
2023-02-16T18:10:14.723Z,8
2023-02-16T18:11:14.176Z,8
2023-02-16T18:12:15.044Z,8
2023-02-16T18:13:14.684Z,8
2023-02-16T18:14:14.615Z,8
2023-02-16T18:15:14.387Z,8
2023-02-16T18:17:14.413Z,1
2023-02-16T18:18:14.064Z,1
2023-02-16T18:19:14.783Z,1
2023-02-16T18:20:14.681Z,1
2023-02-16T18:21:14.402Z,1
2023-02-16T18:22:14.793Z,1
2023-02-16T18:23:14.814Z,1
2023-02-16T18:24:14.245Z,1
2023-02-16T18:25:14.063Z,1
2023-02-16T18:26:15.525Z,1
2023-02-16T18:27:14.428Z,1
2023-02-16T18:28:14.230Z,1
2023-02-16T18:29:14.763Z,1
2023-02-16T18:30:14.924Z,1
2023-02-16T18:31:15.131Z,1
2023-02-16T18:32:14.690Z,6
2023-02-16T18:33:14.538Z,6
2023-02-16T18:34:14.250Z,6
2023-02-16T18:35:14.964Z,6
2023-02-16T18:36:15.572Z,6
2023-02-16T18:37:14.262Z,6
2023-02-16T18:38:14.907Z,6
2023-02-16T18:39:14.584Z,6
2023-02-16T18:40:14.217Z,6
2023-02-16T18:41:14.872Z,6
2023-02-16T18:42:14.443Z,6
2023-02-16T18:44:14.904Z,6
2023-02-16T18:45:14.447Z,6
2023-02-16T18:46:15.887Z,6
2023-02-16T18:47:14.395Z,3
2023-02-16T18:48:14.104Z,3
2023-02-16T18:49:14.859Z,3
2023-02-16T18:50:14.383Z,3
2023-02-16T18:51:13.994Z,3
2023-02-16T18:52:14.706Z,3
2023-02-16T18:53:14.282Z,3
2023-02-16T18:54:14.134Z,3
2023-02-16T18:55:14.937Z,3
2023-02-16T18:56:15.499Z,3
2023-02-16T18:57:14.321Z,3
2023-02-16T18:59:14.852Z,3
2023-02-16T19:00:14.483Z,3
2023-02-16T19:01:14.846Z,3
2023-02-16T19:02:14.262Z,3
2023-02-16T19:03:15.268Z,3
2023-02-16T19:04:15.010Z,3
2023-02-16T19:05:14.169Z,3
2023-02-16T19:06:15.599Z,3
2023-02-16T19:07:14.614Z,3
2023-02-16T19:08:14.341Z,3
2023-02-16T19:09:15.021Z,3
2023-02-16T19:10:14.707Z,3
2023-02-16T19:11:14.369Z,3
2023-02-16T19:12:14.128Z,3
2023-02-16T19:13:14.922Z,3
2023-02-16T19:14:14.391Z,3
2023-02-16T19:15:14.165Z,3
2023-02-16T19:16:15.641Z,3
2023-02-16T19:17:14.689Z,1
2023-02-16T19:18:14.371Z,1
2023-02-16T19:19:14.285Z,1
2023-02-16T19:20:15.066Z,1
2023-02-16T19:21:14.774Z,1
2023-02-16T19:22:14.439Z,1
2023-02-16T19:23:15.041Z,1
2023-02-16T19:24:14.767Z,1
2023-02-16T19:25:14.375Z,1
2023-02-16T19:27:14.705Z,1
2023-02-16T19:28:14.331Z,1
2023-02-16T19:29:15.131Z,1
2023-02-16T19:30:15.073Z,1
2023-02-16T19:31:15.344Z,1
2023-02-16T19:32:14.332Z,1
2023-02-16T19:33:14.842Z,1
2023-02-16T19:34:14.523Z,1
2023-02-16T19:35:14.230Z,1
2023-02-16T19:36:15.027Z,1
2023-02-16T19:37:14.652Z,1
2023-02-16T19:38:15.492Z,1
2023-02-16T19:39:14.185Z,1
2023-02-16T19:40:14.873Z,1
2023-02-16T19:41:14.589Z,1
2023-02-16T19:42:14.284Z,1
2023-02-16T19:43:15.044Z,1
2023-02-16T19:45:14.486Z,1
2023-02-16T19:46:15.868Z,1
2023-02-16T19:47:14.276Z,1
2023-02-16T19:48:14.154Z,1
2023-02-16T19:49:14.985Z,1
2023-02-16T19:50:14.794Z,1
2023-02-16T19:51:14.554Z,1
2023-02-16T19:52:14.225Z,1
2023-02-16T19:53:15.026Z,1
2023-02-16T19:54:14.647Z,1
2023-02-16T19:56:15.441Z,1
2023-02-16T19:57:14.887Z,1
2023-02-16T19:58:14.651Z,1
2023-02-16T19:59:13.974Z,1
2023-02-16T20:00:15.027Z,1
2023-02-16T20:01:14.494Z,1
2023-02-16T20:02:14.665Z,3
2023-02-16T20:03:14.989Z,3
2023-02-16T20:05:14.831Z,3
2023-02-16T20:06:15.251Z,3
2023-02-16T20:07:14.294Z,3
2023-02-16T20:08:13.879Z,3
2023-02-16T20:09:14.432Z,3
2023-02-16T20:10:14.464Z,3
2023-02-16T20:11:13.972Z,3
2023-02-16T20:12:14.745Z,3
2023-02-16T20:13:14.683Z,3
2023-02-16T20:14:14.441Z,3
2023-02-16T20:15:14.997Z,3
2023-02-16T20:17:14.785Z,1
2023-02-16T20:18:14.254Z,1
2023-02-16T20:19:14.246Z,1
2023-02-16T20:20:14.043Z,1
2023-02-16T20:21:14.677Z,1
2023-02-16T20:22:14.459Z,1
2023-02-16T20:23:14.136Z,1
2023-02-16T20:24:14.825Z,1
2023-02-16T20:25:14.757Z,1
2023-02-16T20:26:15.293Z,1
2023-02-16T20:27:14.188Z,1
2023-02-16T20:28:14.896Z,1
2023-02-16T20:29:14.499Z,1
2023-02-16T20:30:14.559Z,1
2023-02-16T20:31:15.612Z,1
2023-02-16T20:32:15.374Z,1
2023-02-16T20:33:13.996Z,1
2023-02-16T20:34:15.019Z,1
2023-02-16T20:35:14.784Z,1
2023-02-16T20:36:15.212Z,1
2023-02-16T20:37:13.958Z,1
2023-02-16T20:38:14.735Z,1
2023-02-16T20:39:14.223Z,1
2023-02-16T20:40:14.148Z,1
2023-02-16T20:41:15.017Z,1
2023-02-16T20:42:14.544Z,1
2023-02-16T20:43:14.130Z,1
2023-02-16T20:44:15.023Z,1
2023-02-16T20:45:14.734Z,1
2023-02-16T20:47:14.445Z,3
2023-02-16T20:48:14.165Z,3
2023-02-16T20:49:15.043Z,3
2023-02-16T20:50:14.502Z,3
2023-02-16T20:51:14.117Z,3
2023-02-16T20:52:14.977Z,3
2023-02-16T20:53:14.391Z,3
2023-02-16T20:54:14.206Z,3
2023-02-16T20:55:14.957Z,3
2023-02-16T20:56:15.672Z,3
2023-02-16T20:57:31.171Z,3
2023-02-16T20:58:13.927Z,3
2023-02-16T20:59:14.748Z,3
2023-02-16T21:00:14.325Z,3
2023-02-16T21:01:14.433Z,3
2023-02-16T21:02:15.307Z,1
2023-02-16T21:03:14.504Z,1
2023-02-16T21:04:14.145Z,1
2023-02-16T21:05:14.947Z,1
2023-02-16T21:06:15.250Z,1
2023-02-16T21:07:14.255Z,1
2023-02-16T21:08:15.010Z,1
2023-02-16T21:09:14.767Z,1
2023-02-16T21:10:14.551Z,1
2023-02-16T21:11:14.166Z,1
2023-02-16T21:12:15.076Z,1
2023-02-16T21:13:14.481Z,1
2023-02-16T21:14:14.374Z,1
2023-02-16T21:15:14.237Z,1
2023-02-16T21:16:15.846Z,1
2023-02-16T21:17:14.863Z,0
2023-02-16T21:18:14.474Z,0
2023-02-16T21:19:31.717Z,0
2023-02-16T21:20:14.956Z,0
2023-02-16T21:21:14.546Z,0
2023-02-16T21:22:14.452Z,0
2023-02-16T21:23:14.279Z,0
2023-02-16T21:24:14.795Z,0
2023-02-16T21:25:14.611Z,0
2023-02-16T21:26:15.086Z,0
2023-02-16T21:27:14.008Z,0
2023-02-16T21:28:14.003Z,0
2023-02-16T21:29:14.636Z,0
2023-02-16T21:30:14.575Z,0
2023-02-16T21:31:15.364Z,0
2023-02-16T21:32:14.540Z,1
2023-02-16T21:33:14.838Z,1
2023-02-16T21:34:14.606Z,1
2023-02-16T21:35:14.249Z,1
2023-02-16T21:37:14.624Z,1
2023-02-16T21:38:14.178Z,1
2023-02-16T21:39:15.423Z,1
2023-02-16T21:40:14.460Z,1
2023-02-16T21:41:14.173Z,1
2023-02-16T21:42:15.004Z,1
2023-02-16T21:43:14.572Z,1
2023-02-16T21:44:14.392Z,1
2023-02-16T21:45:14.909Z,1
2023-02-16T21:46:15.529Z,1
2023-02-16T21:47:14.732Z,0
2023-02-16T21:48:14.412Z,0
2023-02-16T21:49:13.909Z,0
2023-02-16T21:50:14.777Z,0
2023-02-16T21:51:14.342Z,0
2023-02-16T21:52:14.769Z,0
2023-02-16T21:53:14.641Z,0
2023-02-16T21:55:14.064Z,0
2023-02-16T21:56:15.827Z,0
2023-02-16T21:57:14.613Z,0
2023-02-16T21:58:14.272Z,0
2023-02-16T21:59:15.032Z,0
2023-02-16T22:00:14.820Z,0
2023-02-16T22:01:14.818Z,0
2023-02-16T22:02:14.076Z,1
2023-02-16T22:03:14.695Z,1
2023-02-16T22:04:14.690Z,1
2023-02-16T22:05:14.129Z,1
2023-02-16T22:06:15.844Z,1
2023-02-16T22:07:14.432Z,1
2023-02-16T22:08:14.494Z,1
2023-02-16T22:09:14.901Z,1
2023-02-16T22:10:14.455Z,1
2023-02-16T22:11:14.134Z,1
2023-02-16T22:12:14.603Z,1
2023-02-16T22:13:14.541Z,1
2023-02-16T22:14:14.081Z,1
2023-02-16T22:15:14.945Z,1
2023-02-16T22:16:15.047Z,1
2023-02-16T22:17:14.764Z,1
2023-02-16T22:18:14.501Z,1
2023-02-16T22:19:16.555Z,1
2023-02-16T22:20:14.608Z,1
2023-02-16T22:21:14.504Z,1
2023-02-16T22:22:14.388Z,1
2023-02-16T22:23:14.879Z,1
2023-02-16T22:24:14.498Z,1
2023-02-16T22:25:14.321Z,1
2023-02-16T22:27:14.828Z,1
2023-02-16T22:28:14.143Z,1
2023-02-16T22:29:14.019Z,1
2023-02-16T22:30:15.144Z,1
2023-02-16T22:31:14.858Z,1
2023-02-16T22:32:14.846Z,0
2023-02-16T22:33:14.858Z,0
2023-02-16T22:34:14.870Z,0
2023-02-16T22:35:14.622Z,0
2023-02-16T22:36:15.109Z,0
2023-02-16T22:37:14.749Z,0
2023-02-16T22:38:14.610Z,0
2023-02-16T22:39:14.349Z,0
2023-02-16T22:40:15.169Z,0
2023-02-16T22:41:14.773Z,0
2023-02-16T22:42:14.276Z,0
2023-02-16T22:44:14.818Z,0
2023-02-16T22:45:14.515Z,0
2023-02-16T22:46:15.883Z,0
2023-02-16T22:47:14.194Z,0
2023-02-16T22:48:14.954Z,0
2023-02-16T22:49:14.472Z,0
2023-02-16T22:50:14.215Z,0
2023-02-16T22:51:14.921Z,0
2023-02-16T22:52:14.743Z,0
2023-02-16T22:53:14.310Z,0
2023-02-16T22:54:14.466Z,0
2023-02-16T22:55:14.769Z,0
2023-02-16T22:56:15.555Z,0
2023-02-16T22:57:14.329Z,0
2023-02-16T22:58:14.977Z,0
2023-02-16T22:59:14.495Z,0
2023-02-16T23:00:14.611Z,0
2023-02-16T23:01:15.218Z,0
2023-02-16T23:02:14.724Z,3
2023-02-16T23:03:15.049Z,3
2023-02-16T23:04:14.993Z,3
2023-02-16T23:05:14.267Z,3
2023-02-16T23:06:14.881Z,3
2023-02-16T23:07:14.874Z,3
2023-02-16T23:08:14.473Z,3
2023-02-16T23:09:14.468Z,3
2023-02-16T23:10:14.082Z,3
2023-02-16T23:11:14.888Z,3
2023-02-16T23:12:14.486Z,3
2023-02-16T23:13:14.170Z,3
2023-02-16T23:14:14.886Z,3
2023-02-16T23:15:14.706Z,3
2023-02-16T23:16:15.199Z,3
2023-02-16T23:17:14.160Z,0
2023-02-16T23:18:14.116Z,0
2023-02-16T23:19:14.633Z,0
2023-02-16T23:20:14.261Z,0
2023-02-16T23:21:15.013Z,0
2023-02-16T23:22:14.636Z,0
2023-02-16T23:23:14.220Z,0
2023-02-16T23:24:14.018Z,0
2023-02-16T23:25:14.861Z,0
2023-02-16T23:26:15.685Z,0
2023-02-16T23:27:14.346Z,0
2023-02-16T23:28:14.018Z,0
2023-02-16T23:29:14.527Z,0
2023-02-16T23:30:14.705Z,0
2023-02-16T23:31:15.351Z,0
2023-02-16T23:32:14.335Z,3
2023-02-16T23:33:14.892Z,3
2023-02-16T23:34:15.285Z,3
2023-02-16T23:35:14.551Z,3
2023-02-16T23:36:15.081Z,3
2023-02-16T23:37:15.029Z,3
2023-02-16T23:38:14.581Z,3
2023-02-16T23:39:14.144Z,3
2023-02-16T23:40:15.036Z,3
2023-02-16T23:41:14.569Z,3
2023-02-16T23:42:14.249Z,3
2023-02-16T23:43:14.905Z,3
2023-02-16T23:44:14.500Z,3
2023-02-16T23:45:14.016Z,3
2023-02-16T23:47:14.072Z,0
2023-02-16T23:48:14.904Z,0
2023-02-16T23:49:14.487Z,0
2023-02-16T23:50:14.357Z,0
2023-02-16T23:52:14.625Z,0
2023-02-16T23:53:14.444Z,0
2023-02-16T23:54:14.051Z,0
2023-02-16T23:55:14.750Z,0
2023-02-16T23:56:15.220Z,0
2023-02-16T23:57:14.953Z,0
2023-02-16T23:58:14.729Z,0
2023-02-16T23:59:14.283Z,0
